createdAt,value
2023-01-09T00:01:25.333Z,93811.03
2023-01-09T00:03:52.053Z,93808.66
2023-01-09T00:06:18.863Z,93811.38
2023-01-09T00:08:45.422Z,93810.56
2023-01-09T00:11:12.087Z,93813.91
2023-01-09T00:13:39.071Z,93825.84
2023-01-09T00:16:07.401Z,93814.91
2023-01-09T00:18:34.963Z,93820.75
2023-01-09T00:21:08.208Z,93817.59
2023-01-09T00:23:35.186Z,93823.78
2023-01-09T00:26:22.023Z,93824.91
2023-01-09T00:28:50.363Z,93818.84
2023-01-09T00:31:18.263Z,93819.63
2023-01-09T00:33:49.649Z,93819.63
2023-01-09T00:36:16.248Z,93818.53
2023-01-09T00:38:42.912Z,93823.59
2023-01-09T00:41:14.189Z,93820.88
2023-01-09T00:43:48.443Z,93824.84
2023-01-09T00:46:17.225Z,93832.25
2023-01-09T00:48:47.429Z,93851.28
2023-01-09T00:51:14.738Z,93871.25
2023-01-09T00:53:43.431Z,93879.22
2023-01-09T00:56:15.076Z,93881.91
2023-01-09T00:58:41.735Z,93885.59
2023-01-09T01:01:08.562Z,93869.75
2023-01-09T01:03:35.259Z,93862.63
2023-01-09T01:06:01.783Z,93849.47
2023-01-09T01:08:28.332Z,93849.47
2023-01-09T01:10:54.841Z,93843.75
2023-01-09T01:13:21.571Z,93858.50
2023-01-09T01:15:48.037Z,93867.81
2023-01-09T01:18:15.050Z,93853.34
2023-01-09T01:20:43.403Z,93861.56
2023-01-09T01:23:10.003Z,93874.72
2023-01-09T01:25:38.741Z,93884.06
2023-01-09T01:28:06.469Z,93875.34
2023-01-09T01:30:33.772Z,93869.63
2023-01-09T01:33:00.970Z,93868.94
2023-01-09T01:35:27.526Z,93870.19
2023-01-09T01:37:53.985Z,93859.06
2023-01-09T01:40:20.591Z,93854.59
2023-01-09T01:42:50.216Z,93853.50
2023-01-09T01:45:19.230Z,93847.78
2023-01-09T01:48:07.153Z,93825.06
2023-01-09T01:50:50.281Z,93819.66
2023-01-09T01:53:28.586Z,93836.19
2023-01-09T01:56:14.262Z,93826.53
2023-01-09T01:58:47.733Z,93832.25
2023-01-09T02:01:14.909Z,93836.84
2023-01-09T02:03:42.273Z,93840.19
2023-01-09T02:06:09.727Z,93835.94
2023-01-09T02:08:36.718Z,93837.81
2023-01-09T02:11:04.450Z,93828.97
2023-01-09T02:13:33.769Z,93830.88
2023-01-09T02:16:22.791Z,93832.78
2023-01-09T02:19:04.149Z,93835.81
2023-01-09T02:21:51.693Z,93836.94
2023-01-09T02:24:43.421Z,93850.75
2023-01-09T02:27:25.183Z,93849.16
2023-01-09T02:30:10.085Z,93853.44
2023-01-09T02:33:00.616Z,93854.53
2023-01-09T02:35:51.719Z,93856.34
2023-01-09T02:38:54.158Z,93863.63
2023-01-09T02:41:28.301Z,93863.28
2023-01-09T02:44:30.383Z,93865.53
2023-01-09T02:47:19.997Z,93863.50
2023-01-09T02:49:51.349Z,93874.72
2023-01-09T02:52:59.292Z,93869.81
2023-01-09T02:55:41.377Z,93869.00
2023-01-09T02:58:16.798Z,93856.13
2023-01-09T03:01:02.463Z,93863.88
2023-01-09T03:03:56.656Z,93867.84
2023-01-09T03:06:42.792Z,93849.09
2023-01-09T03:09:17.505Z,93847.63
2023-01-09T03:11:49.640Z,93851.59
2023-01-09T03:14:21.238Z,93849.00
2023-01-09T03:16:56.658Z,93840.59
2023-01-09T03:19:26.982Z,93836.44
2023-01-09T03:21:55.201Z,93836.91
2023-01-09T03:24:21.733Z,93839.81
2023-01-09T03:26:48.397Z,93838.94
2023-01-09T03:29:14.904Z,93844.78
2023-01-09T03:31:41.545Z,93835.25
2023-01-09T03:34:08.161Z,93844.13
2023-01-09T03:36:34.710Z,93844.94
2023-01-09T03:39:01.165Z,93860.78
2023-01-09T03:41:27.681Z,93862.34
2023-01-09T03:43:54.261Z,93847.75
2023-01-09T03:46:20.735Z,93839.97
2023-01-09T03:48:47.321Z,93834.59
2023-01-09T03:51:13.816Z,93831.09
2023-01-09T03:53:41.340Z,93841.41
2023-01-09T03:56:07.904Z,93844.94
2023-01-09T03:58:34.518Z,93845.38
2023-01-09T04:01:03.991Z,93852.69
2023-01-09T04:03:30.819Z,93836.19
2023-01-09T04:05:57.420Z,93838.22
2023-01-09T04:08:23.888Z,93837.06
2023-01-09T04:10:51.260Z,93839.44
2023-01-09T04:13:18.498Z,93849.13
2023-01-09T04:15:45.044Z,93846.41
2023-01-09T04:18:11.562Z,93858.00
2023-01-09T04:20:38.208Z,93864.97
2023-01-09T04:23:04.937Z,93869.56
2023-01-09T04:25:31.595Z,93876.53
2023-01-09T04:27:58.117Z,93866.53
2023-01-09T04:30:24.710Z,93871.47
2023-01-09T04:32:51.239Z,93874.97
2023-01-09T04:35:18.382Z,93882.28
2023-01-09T04:37:44.931Z,93883.25
2023-01-09T04:40:12.099Z,93880.56
2023-01-09T04:42:39.726Z,93874.06
2023-01-09T04:45:07.877Z,93884.19
2023-01-09T04:47:34.333Z,93882.38
2023-01-09T04:50:01.020Z,93879.56
2023-01-09T04:52:28.283Z,93892.75
2023-01-09T04:54:54.738Z,93904.63
2023-01-09T04:57:21.283Z,93905.13
2023-01-09T04:59:47.768Z,93910.19
2023-01-09T05:02:14.418Z,93917.81
2023-01-09T05:04:41.070Z,93921.63
2023-01-09T05:07:07.883Z,93928.59
2023-01-09T05:09:34.493Z,93938.94
2023-01-09T05:12:01.901Z,93942.22
2023-01-09T05:14:28.622Z,93951.09
2023-01-09T05:16:55.179Z,93965.53
2023-01-09T05:19:21.647Z,93965.19
2023-01-09T05:21:48.118Z,93976.44
2023-01-09T05:24:14.688Z,93978.16
2023-01-09T05:26:41.324Z,93989.09
2023-01-09T05:29:07.941Z,93996.97
2023-01-09T05:31:34.670Z,94013.31
2023-01-09T05:34:01.153Z,94013.44
2023-01-09T05:36:27.761Z,94020.41
2023-01-09T05:38:54.230Z,94017.53
2023-01-09T05:41:22.516Z,94036.22
2023-01-09T05:43:50.204Z,94034.63
2023-01-09T05:46:16.684Z,94043.19
2023-01-09T05:48:43.128Z,94039.38
2023-01-09T05:51:09.732Z,94048.28
2023-01-09T05:53:36.243Z,94058.06
2023-01-09T05:56:03.042Z,94074.22
2023-01-09T05:58:29.609Z,94065.31
2023-01-09T06:00:56.149Z,94065.47
2023-01-09T06:03:22.738Z,94063.22
2023-01-09T06:05:49.224Z,94069.53
2023-01-09T06:08:15.799Z,94072.44
2023-01-09T06:10:42.241Z,94073.22
2023-01-09T06:13:08.971Z,94078.16
2023-01-09T06:15:35.648Z,94090.88
2023-01-09T06:18:02.165Z,94087.06
2023-01-09T06:20:28.716Z,94085.78
2023-01-09T06:22:55.163Z,94065.47
2023-01-09T06:25:22.029Z,94072.31
2023-01-09T06:27:49.151Z,94084.22
2023-01-09T06:30:15.759Z,94102.13
2023-01-09T06:32:42.284Z,94091.53
2023-01-09T06:35:09.341Z,94101.66
2023-01-09T06:37:35.871Z,94099.16
2023-01-09T06:40:02.434Z,94110.09
2023-01-09T06:42:28.901Z,94118.53
2023-01-09T06:44:55.408Z,94120.13
2023-01-09T06:47:21.902Z,94119.78
2023-01-09T06:49:48.372Z,94127.56
2023-01-09T06:52:14.867Z,94129.44
2023-01-09T06:54:41.434Z,94115.22
2023-01-09T06:57:08.013Z,94134.84
2023-01-09T06:59:34.473Z,94150.28
2023-01-09T07:02:01.003Z,94160.09
2023-01-09T07:04:27.587Z,94155.94
2023-01-09T07:06:54.104Z,94151.66
2023-01-09T07:09:20.656Z,94161.69
2023-01-09T07:11:47.128Z,94170.13
2023-01-09T07:14:13.617Z,94157.53
2023-01-09T07:16:40.114Z,94178.22
2023-01-09T07:19:06.606Z,94166.72
2023-01-09T07:21:33.198Z,94162.91
2023-01-09T07:23:59.760Z,94172.63
2023-01-09T07:26:26.312Z,94176.88
2023-01-09T07:28:52.767Z,94180.06
2023-01-09T07:31:19.284Z,94178.47
2023-01-09T07:33:45.815Z,94178.47
2023-01-09T07:36:12.765Z,94200.22
2023-01-09T07:38:39.436Z,94195.78
2023-01-09T07:41:06.039Z,94192.63
2023-01-09T07:43:32.587Z,94207.53
2023-01-09T07:45:59.218Z,94203.22
2023-01-09T07:48:25.775Z,94217.53
2023-01-09T07:50:52.418Z,94215.34
2023-01-09T07:53:18.882Z,94224.19
2023-01-09T07:55:45.388Z,94228.69
2023-01-09T07:58:11.970Z,94225.31
2023-01-09T08:00:38.608Z,94239.31
2023-01-09T08:03:05.195Z,94240.59
2023-01-09T08:05:31.861Z,94248.50
2023-01-09T08:07:58.402Z,94248.81
2023-01-09T08:10:24.945Z,94258.34
2023-01-09T08:12:51.519Z,94255.63
2023-01-09T08:15:18.335Z,94263.22
2023-01-09T08:17:46.373Z,94262.25
2023-01-09T08:20:14.003Z,94266.59
2023-01-09T08:22:45.708Z,94271.81
2023-01-09T08:25:12.850Z,94288.69
2023-01-09T08:27:39.548Z,94297.91
2023-01-09T08:30:06.689Z,94297.91
2023-01-09T08:32:33.290Z,94305.53
2023-01-09T08:34:59.788Z,94301.88
2023-01-09T08:37:26.300Z,94304.41
2023-01-09T08:39:52.960Z,94312.50
2023-01-09T08:42:19.930Z,94300.47
2023-01-09T08:44:46.509Z,94313.19
2023-01-09T08:47:16.322Z,94312.06
2023-01-09T08:49:42.878Z,94328.44
2023-01-09T08:52:09.769Z,94305.41
2023-01-09T08:54:36.368Z,94331.28
2023-01-09T08:57:02.956Z,94315.53
2023-01-09T08:59:29.453Z,94307.78
2023-01-09T09:01:56.120Z,94314.94
2023-01-09T09:04:22.740Z,94313.31
2023-01-09T09:06:49.279Z,94325.41
2023-01-09T09:09:16.185Z,94345.59
2023-01-09T09:11:42.755Z,94324.91
2023-01-09T09:14:09.315Z,94323.31
2023-01-09T09:16:35.800Z,94318.72
2023-01-09T09:19:02.328Z,94328.06
2023-01-09T09:21:28.976Z,94334.41
2023-01-09T09:23:55.593Z,94340.16
2023-01-09T09:26:22.125Z,94354.28
2023-01-09T09:28:48.638Z,94362.25
2023-01-09T09:31:15.270Z,94367.03
2023-01-09T09:33:42.015Z,94365.44
2023-01-09T09:36:08.605Z,94361.81
2023-01-09T09:38:35.230Z,94356.41
2023-01-09T09:41:23.539Z,94354.47
2023-01-09T09:44:15.036Z,94355.44
2023-01-09T09:46:54.781Z,94353.22
2023-01-09T09:49:27.992Z,94340.97
2023-01-09T09:52:33.742Z,94332.41
2023-01-09T09:55:05.515Z,94342.91
2023-01-09T09:57:36.363Z,94332.09
2023-01-09T10:00:05.739Z,94343.34
2023-01-09T10:02:46.514Z,94340.97
2023-01-09T10:05:20.432Z,94347.94
2023-01-09T10:07:50.810Z,94349.88
2023-01-09T10:10:42.089Z,94357.66
2023-01-09T10:13:09.799Z,94354.94
2023-01-09T10:15:46.532Z,94346.50
2023-01-09T10:18:42.526Z,94332.38
2023-01-09T10:21:35.021Z,94343.16
2023-01-09T10:24:18.117Z,94334.91
2023-01-09T10:26:50.916Z,94333.84
2023-01-09T10:29:58.591Z,94329.53
2023-01-09T10:32:45.872Z,94341.75
2023-01-09T10:35:48.487Z,94322.81
2023-01-09T10:38:20.482Z,94329.00
2023-01-09T10:41:00.689Z,94323.59
2023-01-09T10:43:42.160Z,94326.94
2023-01-09T10:46:21.592Z,94330.09
2023-01-09T10:48:53.577Z,94329.78
2023-01-09T10:51:24.051Z,94331.97
2023-01-09T10:53:53.927Z,94330.03
2023-01-09T10:56:26.505Z,94331.31
2023-01-09T10:58:54.703Z,94333.03
2023-01-09T11:01:30.661Z,94326.03
2023-01-09T11:03:57.304Z,94318.53
2023-01-09T11:06:29.907Z,94323.28
2023-01-09T11:09:00.283Z,94328.81
2023-01-09T11:11:38.749Z,94330.09
2023-01-09T11:14:27.243Z,94333.13
2023-01-09T11:17:03.623Z,94336.28
2023-01-09T11:19:31.847Z,94331.63
2023-01-09T11:22:09.672Z,94330.97
2023-01-09T11:24:36.268Z,94330.31
2023-01-09T11:27:22.728Z,94329.50
2023-01-09T11:30:13.958Z,94345.06
2023-01-09T11:32:40.680Z,94337.91
2023-01-09T11:35:18.434Z,94332.81
2023-01-09T11:37:46.107Z,94326.09
2023-01-09T11:40:20.258Z,94327.88
2023-01-09T11:43:14.223Z,94328.97
2023-01-09T11:46:01.258Z,94328.31
2023-01-09T11:48:48.260Z,94326.47
2023-01-09T11:51:21.433Z,94330.44
2023-01-09T11:53:51.027Z,94331.03
2023-01-09T11:56:17.999Z,94327.22
2023-01-09T11:58:45.016Z,94321.03
2023-01-09T12:01:29.464Z,94328.31
2023-01-09T12:04:07.984Z,94327.66
2023-01-09T12:06:41.824Z,94333.88
2023-01-09T12:09:14.704Z,94329.25
2023-01-09T12:11:53.168Z,94332.41
2023-01-09T12:14:46.226Z,94325.94
2023-01-09T12:17:33.464Z,94343.88
2023-01-09T12:20:22.574Z,94350.09
2023-01-09T12:23:01.510Z,94335.94
2023-01-09T12:25:37.685Z,94347.66
2023-01-09T12:28:34.689Z,94343.38
2023-01-09T12:31:25.173Z,94327.81
2023-01-09T12:34:18.833Z,94339.09
2023-01-09T12:37:04.389Z,94335.72
2023-01-09T12:39:43.158Z,94334.63
2023-01-09T12:42:31.166Z,94328.84
2023-01-09T12:45:00.498Z,94319.69
2023-01-09T12:47:33.068Z,94321.66
2023-01-09T12:50:08.189Z,94330.72
2023-01-09T12:52:38.720Z,94322.13
2023-01-09T12:55:15.703Z,94329.34
2023-01-09T12:57:46.866Z,94333.09
2023-01-09T13:00:13.891Z,94320.81
2023-01-09T13:03:11.384Z,94317.75
2023-01-09T13:05:58.629Z,94313.81
2023-01-09T13:08:40.514Z,94311.56
2023-01-09T13:11:20.333Z,94312.81
2023-01-09T13:13:52.976Z,94319.47
2023-01-09T13:16:26.781Z,94313.63
2023-01-09T13:19:03.683Z,94303.13
2023-01-09T13:21:31.299Z,94297.06
2023-01-09T13:24:07.121Z,94316.78
2023-01-09T13:26:43.543Z,94315.66
2023-01-09T13:29:14.679Z,94314.84
2023-01-09T13:32:11.991Z,94326.94
2023-01-09T13:34:39.626Z,94317.22
2023-01-09T13:37:27.025Z,94314.06
2023-01-09T13:39:58.254Z,94314.53
2023-01-09T13:42:25.351Z,94314.34
2023-01-09T13:44:55.349Z,94310.69
2023-01-09T13:47:27.998Z,94301.00
2023-01-09T13:50:00.693Z,94305.94
2023-01-09T13:52:37.382Z,94305.50
2023-01-09T13:55:13.097Z,94306.94
2023-01-09T13:58:02.687Z,94307.75
2023-01-09T14:00:29.240Z,94312.22
2023-01-09T14:02:57.552Z,94326.88
2023-01-09T14:05:24.043Z,94326.41
2023-01-09T14:08:00.491Z,94319.41
2023-01-09T14:10:27.054Z,94322.00
2023-01-09T14:12:55.967Z,94317.25
2023-01-09T14:15:28.239Z,94322.97
2023-01-09T14:18:00.641Z,94329.88
2023-01-09T14:20:33.689Z,94337.66
2023-01-09T14:25:47.167Z,94340.84
2023-01-09T14:28:25.889Z,94338.47
2023-01-09T14:30:52.381Z,94350.09
2023-01-09T14:33:18.881Z,94335.31
2023-01-09T14:35:55.163Z,94338.69
2023-01-09T14:38:26.236Z,94339.00
2023-01-09T14:41:20.205Z,94332.22
2023-01-09T14:43:46.721Z,94332.22
2023-01-09T14:46:17.649Z,94346.06
2023-01-09T14:48:57.375Z,94339.88
2023-01-09T14:51:25.949Z,94334.00
2023-01-09T14:53:54.585Z,94338.13
2023-01-09T14:56:29.838Z,94350.88
2023-01-09T14:59:13.217Z,94341.16
2023-01-09T15:01:46.989Z,94342.59
2023-01-09T15:04:19.330Z,94345.31
2023-01-09T15:06:45.881Z,94341.38
2023-01-09T15:09:28.772Z,94348.38
2023-01-09T15:11:59.547Z,94347.56
2023-01-09T15:14:39.944Z,94344.41
2023-01-09T15:17:19.165Z,94343.63
2023-01-09T15:19:46.479Z,94351.72
2023-01-09T15:22:27.702Z,94354.25
2023-01-09T15:24:54.195Z,94365.06
2023-01-09T15:27:20.896Z,94370.47
2023-01-09T15:29:48.287Z,94367.78
2023-01-09T15:32:35.250Z,94363.84
2023-01-09T15:35:01.794Z,94363.03
2023-01-09T15:37:33.384Z,94371.94
2023-01-09T15:40:02.816Z,94377.34
2023-01-09T15:42:32.453Z,94371.63
2023-01-09T15:44:59.054Z,94370.47
2023-01-09T15:47:25.654Z,94367.00
2023-01-09T15:49:52.650Z,94371.94
2023-01-09T15:52:20.943Z,94379.72
2023-01-09T15:54:47.519Z,94371.31
2023-01-09T15:57:29.017Z,94373.25
2023-01-09T15:59:57.940Z,94374.03
2023-01-09T16:02:25.888Z,94372.47
2023-01-09T16:04:54.900Z,94387.88
2023-01-09T16:07:21.440Z,94387.53
2023-01-09T16:09:49.927Z,94390.25
2023-01-09T16:12:34.572Z,94376.41
2023-01-09T16:15:01.439Z,94383.72
2023-01-09T16:17:28.176Z,94381.81
2023-01-09T16:19:56.868Z,94392.50
2023-01-09T16:22:26.351Z,94399.94
2023-01-09T16:24:54.764Z,94402.66
2023-01-09T16:27:22.239Z,94411.53
2023-01-09T16:29:50.170Z,94404.22
2023-01-09T16:32:22.548Z,94414.69
2023-01-09T16:34:58.539Z,94429.69
2023-01-09T16:37:25.960Z,94434.13
2023-01-09T16:40:14.076Z,94445.25
2023-01-09T16:42:40.645Z,94452.13
2023-01-09T16:45:07.934Z,94450.06
2023-01-09T16:47:34.396Z,94447.38
2023-01-09T16:50:01.047Z,94446.56
2023-01-09T16:52:30.484Z,94456.13
2023-01-09T16:54:57.049Z,94471.84
2023-01-09T16:57:24.404Z,94471.84
2023-01-09T16:59:50.935Z,94464.06
2023-01-09T17:02:19.307Z,94467.44
2023-01-09T17:04:46.097Z,94479.66
2023-01-09T17:07:16.980Z,94468.38
2023-01-09T17:09:43.952Z,94472.66
2023-01-09T17:12:18.781Z,94482.22
2023-01-09T17:14:49.014Z,94491.09
2023-01-09T17:17:18.799Z,94496.38
2023-01-09T17:19:45.482Z,94496.69
2023-01-09T17:22:12.171Z,94500.03
2023-01-09T17:24:38.762Z,94498.44
2023-01-09T17:27:05.450Z,94505.75
2023-01-09T17:29:33.422Z,94514.63
2023-01-09T17:32:00.443Z,94519.09
2023-01-09T17:34:27.109Z,94515.88
2023-01-09T17:36:53.953Z,94519.09
2023-01-09T17:39:20.753Z,94516.19
2023-01-09T17:41:47.228Z,94525.44
2023-01-09T17:44:13.917Z,94528.13
2023-01-09T17:46:43.364Z,94529.25
2023-01-09T17:49:16.465Z,94535.59
2023-01-09T17:51:43.138Z,94536.06
2023-01-09T17:54:12.998Z,94537.97
2023-01-09T17:56:43.078Z,94544.31
2023-01-09T17:59:13.902Z,94541.63
2023-01-09T18:01:41.469Z,94544.66
2023-01-09T18:04:08.632Z,94547.97
2023-01-09T18:06:35.595Z,94540.19
2023-01-09T18:09:06.269Z,94548.94
2023-01-09T18:11:33.499Z,94551.16
2023-01-09T18:14:00.168Z,94557.19
2023-01-09T18:16:28.481Z,94564.34
2023-01-09T18:18:57.308Z,94565.63
2023-01-09T18:21:24.747Z,94560.53
2023-01-09T18:23:51.738Z,94567.81
2023-01-09T18:26:18.843Z,94566.38
2023-01-09T18:28:45.749Z,94575.59
2023-01-09T18:31:12.342Z,94582.41
2023-01-09T18:33:39.119Z,94579.88
2023-01-09T18:36:10.108Z,94573.03
2023-01-09T18:38:37.029Z,94576.03
2023-01-09T18:41:05.248Z,94581.59
2023-01-09T18:43:32.051Z,94572.53
2023-01-09T18:45:58.844Z,94578.84
2023-01-09T18:48:25.407Z,94586.63
2023-01-09T18:50:51.886Z,94599.94
2023-01-09T18:53:18.367Z,94585.78
2023-01-09T18:55:44.833Z,94602.44
2023-01-09T18:58:13.948Z,94608.44
2023-01-09T19:00:40.654Z,94595.91
2023-01-09T19:03:07.386Z,94600.63
2023-01-09T19:05:33.859Z,94598.88
2023-01-09T19:08:00.377Z,94618.84
2023-01-09T19:10:26.948Z,94612.78
2023-01-09T19:12:53.450Z,94617.22
2023-01-09T19:15:20.033Z,94620.22
2023-01-09T19:17:46.708Z,94630.19
2023-01-09T19:20:13.303Z,94634.63
2023-01-09T19:22:39.895Z,94642.22
2023-01-09T19:27:58.127Z,94665.50
2023-01-09T19:30:25.386Z,94665.00
2023-01-09T19:32:52.359Z,94662.63
2023-01-09T19:35:22.706Z,94662.63
2023-01-09T19:37:49.439Z,94673.41
2023-01-09T19:40:19.334Z,94665.94
2023-01-09T19:42:46.020Z,94669.59
2023-01-09T19:45:12.776Z,94677.38
2023-01-09T19:47:39.521Z,94668.00
2023-01-09T19:50:10.631Z,94692.75
2023-01-09T19:52:37.589Z,94695.94
2023-01-09T19:55:05.123Z,94680.56
2023-01-09T19:57:31.818Z,94692.91
2023-01-09T19:59:58.618Z,94692.91
2023-01-09T20:02:25.205Z,94699.13
2023-01-09T20:04:51.967Z,94703.69
2023-01-09T20:07:18.580Z,94702.91
2023-01-09T20:09:45.181Z,94703.69
2023-01-09T20:12:11.888Z,94717.47
2023-01-09T20:14:38.496Z,94711.91
2023-01-09T20:17:05.201Z,94713.53
2023-01-09T20:19:32.338Z,94710.91
2023-01-09T20:22:00.468Z,94720.44
2023-01-09T20:24:27.251Z,94719.13
2023-01-09T20:26:53.967Z,94730.22
2023-01-09T20:29:20.703Z,94728.44
2023-01-09T20:31:47.496Z,94729.03
2023-01-09T20:34:15.127Z,94731.84
2023-01-09T20:36:51.070Z,94727.69
2023-01-09T20:39:17.823Z,94736.06
2023-01-09T20:41:44.629Z,94748.84
2023-01-09T20:44:15.419Z,94745.16
2023-01-09T20:46:44.082Z,94757.13
2023-01-09T20:49:13.214Z,94766.94
2023-01-09T20:51:45.374Z,94772.91
2023-01-09T20:54:19.506Z,94781.78
2023-01-09T20:56:46.101Z,94773.03
2023-01-09T20:59:17.856Z,94776.69
2023-01-09T21:01:44.510Z,94768.13
2023-01-09T21:04:13.718Z,94776.41
2023-01-09T21:06:41.279Z,94775.31
2023-01-09T21:09:07.957Z,94764.25
2023-01-09T21:11:35.005Z,94771.72
2023-01-09T21:14:03.020Z,94776.00
2023-01-09T21:16:29.782Z,94776.50
2023-01-09T21:19:06.972Z,94784.00
2023-01-09T21:21:33.828Z,94782.88
2023-01-09T21:24:02.722Z,94788.78
2023-01-09T21:26:32.095Z,94789.25
2023-01-09T21:29:01.085Z,94791.66
2023-01-09T21:31:30.471Z,94794.03
2023-01-09T21:33:57.291Z,94801.00
2023-01-09T21:36:24.447Z,94794.53
2023-01-09T21:39:24.660Z,94810.22
2023-01-09T21:41:52.960Z,94797.84
2023-01-09T21:45:57.233Z,94805.91
2023-01-09T21:47:14.871Z,94803.22
2023-01-09T21:49:44.573Z,94805.13
2023-01-09T21:52:21.649Z,94809.50
2023-01-09T21:54:48.592Z,94811.91
2023-01-09T21:57:15.690Z,94819.69
2023-01-09T21:59:42.304Z,94818.06
2023-01-09T22:02:12.078Z,94826.16
2023-01-09T22:04:40.160Z,94829.66
2023-01-09T22:07:06.840Z,94831.75
2023-01-09T22:09:33.525Z,94825.59
2023-01-09T22:12:00.169Z,94836.84
2023-01-09T22:14:27.052Z,94840.94
2023-01-09T22:16:53.856Z,94844.22
2023-01-09T22:19:22.830Z,94841.81
2023-01-09T22:22:00.508Z,94846.41
2023-01-09T22:24:37.742Z,94856.41
2023-01-09T22:27:09.156Z,94849.72
2023-01-09T22:29:37.239Z,94864.78
2023-01-09T22:32:04.088Z,94856.50
2023-01-09T22:34:30.710Z,94865.66
2023-01-09T22:37:44.302Z,94866.16
2023-01-09T22:39:49.999Z,94862.97
2023-01-09T22:43:06.090Z,94865.88
2023-01-09T22:45:07.616Z,94876.13
2023-01-09T22:47:35.431Z,94882.63
2023-01-09T22:50:02.054Z,94873.75
2023-01-09T22:52:28.933Z,94888.00
2023-01-09T22:54:55.624Z,94896.38
2023-01-09T22:57:24.410Z,94892.09
2023-01-09T23:00:03.718Z,94893.19
2023-01-09T23:02:30.644Z,94892.28
2023-01-09T23:04:58.660Z,94897.69
2023-01-09T23:07:27.878Z,94904.38
2023-01-09T23:10:05.521Z,94905.66
2023-01-09T23:12:33.097Z,94905.16
2023-01-09T23:15:01.941Z,94909.44
2023-01-09T23:17:28.763Z,94908.66
2023-01-09T23:19:55.376Z,94915.16
2023-01-09T23:22:23.206Z,94927.69
2023-01-09T23:24:49.979Z,94918.34
2023-01-09T23:27:16.680Z,94918.53
2023-01-09T23:29:54.870Z,94920.44
2023-01-09T23:32:21.553Z,94922.59
2023-01-09T23:34:48.478Z,94919.31
2023-01-09T23:37:15.910Z,94922.59
2023-01-09T23:39:42.668Z,94929.31
2023-01-09T23:42:25.189Z,94939.78
2023-01-09T23:44:51.940Z,94935.47
2023-01-09T23:47:18.810Z,94935.78
2023-01-09T23:49:45.465Z,94945.47
2023-01-09T23:52:12.281Z,94938.47
2023-01-09T23:54:40.389Z,94944.66
2023-01-09T23:57:07.005Z,94950.75
2023-01-09T23:59:33.697Z,94947.38
